sensor_id;sensor_type;location;lat;lon;timestamp;P1;durP1;ratioP1;P2;durP2;ratioP2
55423;SDS011;41294;42.666;23.350;2023-10-09T00:01:28;8.48;;;3.03;;
55423;SDS011;41294;42.666;23.350;2023-10-09T00:03:56;8.18;;;3.17;;
55423;SDS011;41294;42.666;23.350;2023-10-09T00:06:26;9.30;;;3.05;;
55423;SDS011;41294;42.666;23.350;2023-10-09T00:09:04;4.35;;;2.53;;
55423;SDS011;41294;42.666;23.350;2023-10-09T00:11:50;5.13;;;2.38;;
55423;SDS011;41294;42.666;23.350;2023-10-09T00:14:24;8.18;;;2.22;;
55423;SDS011;41294;42.666;23.350;2023-10-09T00:16:50;8.90;;;2.22;;
55423;SDS011;41294;42.666;23.350;2023-10-09T00:19:26;4.85;;;2.70;;
55423;SDS011;41294;42.666;23.350;2023-10-09T00:21:56;4.60;;;2.28;;
55423;SDS011;41294;42.666;23.350;2023-10-09T00:24:23;4.72;;;2.63;;
55423;SDS011;41294;42.666;23.350;2023-10-09T00:26:52;9.20;;;2.83;;
55423;SDS011;41294;42.666;23.350;2023-10-09T00:29:36;6.40;;;2.50;;
55423;SDS011;41294;42.666;23.350;2023-10-09T00:32:08;8.85;;;2.30;;
55423;SDS011;41294;42.666;23.350;2023-10-09T00:34:53;5.57;;;2.50;;
55423;SDS011;41294;42.666;23.350;2023-10-09T00:37:23;6.07;;;2.30;;
55423;SDS011;41294;42.666;23.350;2023-10-09T00:39:51;7.00;;;2.25;;
55423;SDS011;41294;42.666;23.350;2023-10-09T00:42:23;5.22;;;2.10;;
55423;SDS011;41294;42.666;23.350;2023-10-09T00:44:58;3.85;;;2.17;;
55423;SDS011;41294;42.666;23.350;2023-10-09T00:47:34;5.50;;;2.30;;
55423;SDS011;41294;42.666;23.350;2023-10-09T00:50:02;5.75;;;2.47;;
55423;SDS011;41294;42.666;23.350;2023-10-09T00:52:40;4.93;;;2.20;;
55423;SDS011;41294;42.666;23.350;2023-10-09T00:55:14;3.80;;;2.30;;
55423;SDS011;41294;42.666;23.350;2023-10-09T00:57:47;6.25;;;2.40;;
55423;SDS011;41294;42.666;23.350;2023-10-09T01:00:24;4.85;;;2.03;;
55423;SDS011;41294;42.666;23.350;2023-10-09T01:03:14;6.45;;;2.28;;
55423;SDS011;41294;42.666;23.350;2023-10-09T01:05:41;7.22;;;2.13;;
55423;SDS011;41294;42.666;23.350;2023-10-09T01:08:16;6.97;;;2.13;;
55423;SDS011;41294;42.666;23.350;2023-10-09T01:10:50;4.72;;;2.25;;
55423;SDS011;41294;42.666;23.350;2023-10-09T01:13:24;6.35;;;2.40;;
55423;SDS011;41294;42.666;23.350;2023-10-09T01:16:04;2.72;;;2.15;;
55423;SDS011;41294;42.666;23.350;2023-10-09T01:18:31;3.72;;;2.30;;
55423;SDS011;41294;42.666;23.350;2023-10-09T01:21:01;5.13;;;1.98;;
55423;SDS011;41294;42.666;23.350;2023-10-09T01:23:28;4.35;;;1.70;;
55423;SDS011;41294;42.666;23.350;2023-10-09T01:25:54;7.30;;;2.33;;
55423;SDS011;41294;42.666;23.350;2023-10-09T01:28:20;3.00;;;1.98;;
55423;SDS011;41294;42.666;23.350;2023-10-09T01:30:46;5.22;;;1.88;;
55423;SDS011;41294;42.666;23.350;2023-10-09T01:33:12;2.65;;;2.05;;
55423;SDS011;41294;42.666;23.350;2023-10-09T01:35:52;3.95;;;2.08;;
55423;SDS011;41294;42.666;23.350;2023-10-09T01:38:23;6.45;;;2.10;;
55423;SDS011;41294;42.666;23.350;2023-10-09T01:41:05;5.10;;;2.20;;
55423;SDS011;41294;42.666;23.350;2023-10-09T01:43:32;3.55;;;2.03;;
55423;SDS011;41294;42.666;23.350;2023-10-09T01:45:59;5.07;;;2.08;;
55423;SDS011;41294;42.666;23.350;2023-10-09T01:48:26;5.65;;;2.22;;
55423;SDS011;41294;42.666;23.350;2023-10-09T01:50:52;2.83;;;2.10;;
55423;SDS011;41294;42.666;23.350;2023-10-09T01:53:18;7.00;;;2.10;;
55423;SDS011;41294;42.666;23.350;2023-10-09T01:55:47;5.70;;;2.10;;
55423;SDS011;41294;42.666;23.350;2023-10-09T01:58:14;5.65;;;2.25;;
55423;SDS011;41294;42.666;23.350;2023-10-09T02:00:43;9.00;;;2.47;;
55423;SDS011;41294;42.666;23.350;2023-10-09T02:03:14;3.55;;;2.17;;
55423;SDS011;41294;42.666;23.350;2023-10-09T02:05:43;5.53;;;2.38;;
55423;SDS011;41294;42.666;23.350;2023-10-09T02:08:08;5.93;;;2.15;;
55423;SDS011;41294;42.666;23.350;2023-10-09T02:10:35;5.40;;;2.00;;
55423;SDS011;41294;42.666;23.350;2023-10-09T02:13:03;3.60;;;1.90;;
55423;SDS011;41294;42.666;23.350;2023-10-09T02:15:37;5.57;;;2.20;;
55423;SDS011;41294;42.666;23.350;2023-10-09T02:18:19;3.80;;;1.80;;
55423;SDS011;41294;42.666;23.350;2023-10-09T02:23:37;8.10;;;2.43;;
55423;SDS011;41294;42.666;23.350;2023-10-09T02:26:19;5.57;;;2.13;;
55423;SDS011;41294;42.666;23.350;2023-10-09T02:28:52;4.72;;;1.90;;
55423;SDS011;41294;42.666;23.350;2023-10-09T02:31:23;5.20;;;1.90;;
55423;SDS011;41294;42.666;23.350;2023-10-09T02:33:51;5.27;;;2.27;;
55423;SDS011;41294;42.666;23.350;2023-10-09T02:36:20;3.27;;;1.80;;
55423;SDS011;41294;42.666;23.350;2023-10-09T02:38:45;2.97;;;1.80;;
55423;SDS011;41294;42.666;23.350;2023-10-09T02:41:14;3.37;;;1.80;;
55423;SDS011;41294;42.666;23.350;2023-10-09T02:43:40;3.33;;;2.07;;
55423;SDS011;41294;42.666;23.350;2023-10-09T02:46:10;6.75;;;2.22;;
55423;SDS011;41294;42.666;23.350;2023-10-09T02:48:54;4.10;;;1.77;;
55423;SDS011;41294;42.666;23.350;2023-10-09T02:51:25;5.10;;;2.10;;
55423;SDS011;41294;42.666;23.350;2023-10-09T02:53:54;4.70;;;1.80;;
55423;SDS011;41294;42.666;23.350;2023-10-09T02:56:22;2.93;;;1.80;;
55423;SDS011;41294;42.666;23.350;2023-10-09T02:59:21;3.23;;;1.90;;
55423;SDS011;41294;42.666;23.350;2023-10-09T03:01:47;4.73;;;3.30;;
55423;SDS011;41294;42.666;23.350;2023-10-09T03:04:13;2.47;;;2.10;;
55423;SDS011;41294;42.666;23.350;2023-10-09T03:06:39;5.40;;;1.73;;
55423;SDS011;41294;42.666;23.350;2023-10-09T03:09:16;6.00;;;1.90;;
55423;SDS011;41294;42.666;23.350;2023-10-09T03:11:51;4.97;;;2.60;;
55423;SDS011;41294;42.666;23.350;2023-10-09T03:14:27;2.80;;;1.73;;
55423;SDS011;41294;42.666;23.350;2023-10-09T03:16:54;1.67;;;1.43;;
55423;SDS011;41294;42.666;23.350;2023-10-09T03:19:21;4.30;;;1.70;;
55423;SDS011;41294;42.666;23.350;2023-10-09T03:21:47;2.10;;;1.90;;
55423;SDS011;41294;42.666;23.350;2023-10-09T03:24:12;1.83;;;1.50;;
55423;SDS011;41294;42.666;23.350;2023-10-09T03:26:38;2.93;;;1.80;;
55423;SDS011;41294;42.666;23.350;2023-10-09T03:29:03;3.73;;;1.60;;
55423;SDS011;41294;42.666;23.350;2023-10-09T03:31:38;2.47;;;1.70;;
55423;SDS011;41294;42.666;23.350;2023-10-09T03:34:04;2.67;;;1.47;;
55423;SDS011;41294;42.666;23.350;2023-10-09T03:36:30;4.07;;;1.60;;
55423;SDS011;41294;42.666;23.350;2023-10-09T03:38:59;2.97;;;1.53;;
55423;SDS011;41294;42.666;23.350;2023-10-09T03:41:25;4.50;;;1.50;;
55423;SDS011;41294;42.666;23.350;2023-10-09T03:43:52;3.87;;;1.47;;
55423;SDS011;41294;42.666;23.350;2023-10-09T03:46:19;2.90;;;1.43;;
55423;SDS011;41294;42.666;23.350;2023-10-09T03:48:49;2.20;;;1.50;;
55423;SDS011;41294;42.666;23.350;2023-10-09T03:51:17;2.37;;;1.47;;
55423;SDS011;41294;42.666;23.350;2023-10-09T03:53:48;1.40;;;1.30;;
55423;SDS011;41294;42.666;23.350;2023-10-09T03:56:15;1.27;;;1.17;;
55423;SDS011;41294;42.666;23.350;2023-10-09T03:58:45;2.00;;;1.57;;
55423;SDS011;41294;42.666;23.350;2023-10-09T04:01:15;4.50;;;1.67;;
55423;SDS011;41294;42.666;23.350;2023-10-09T04:03:48;3.07;;;1.30;;
55423;SDS011;41294;42.666;23.350;2023-10-09T04:06:20;1.50;;;1.40;;
55423;SDS011;41294;42.666;23.350;2023-10-09T04:08:46;2.40;;;1.50;;
55423;SDS011;41294;42.666;23.350;2023-10-09T04:11:16;3.00;;;1.50;;
55423;SDS011;41294;42.666;23.350;2023-10-09T04:13:45;4.70;;;1.60;;
55423;SDS011;41294;42.666;23.350;2023-10-09T04:16:11;1.63;;;1.50;;
55423;SDS011;41294;42.666;23.350;2023-10-09T04:18:56;5.63;;;2.03;;
55423;SDS011;41294;42.666;23.350;2023-10-09T04:21:22;3.17;;;1.90;;
55423;SDS011;41294;42.666;23.350;2023-10-09T04:24:04;5.43;;;2.00;;
55423;SDS011;41294;42.666;23.350;2023-10-09T04:26:37;5.00;;;1.90;;
55423;SDS011;41294;42.666;23.350;2023-10-09T04:29:09;3.67;;;1.63;;
55423;SDS011;41294;42.666;23.350;2023-10-09T04:31:35;3.40;;;1.30;;
55423;SDS011;41294;42.666;23.350;2023-10-09T04:34:05;2.00;;;1.30;;
55423;SDS011;41294;42.666;23.350;2023-10-09T04:36:51;2.27;;;1.43;;
55423;SDS011;41294;42.666;23.350;2023-10-09T04:39:22;1.63;;;1.40;;
55423;SDS011;41294;42.666;23.350;2023-10-09T04:41:56;2.60;;;1.70;;
55423;SDS011;41294;42.666;23.350;2023-10-09T04:44:41;1.60;;;1.50;;
55423;SDS011;41294;42.666;23.350;2023-10-09T04:47:29;3.07;;;1.60;;
55423;SDS011;41294;42.666;23.350;2023-10-09T04:50:04;3.83;;;1.80;;
55423;SDS011;41294;42.666;23.350;2023-10-09T04:52:30;1.93;;;1.60;;
55423;SDS011;41294;42.666;23.350;2023-10-09T04:54:56;3.50;;;1.80;;
55423;SDS011;41294;42.666;23.350;2023-10-09T05:05:23;4.87;;;1.57;;
55423;SDS011;41294;42.666;23.350;2023-10-09T05:08:11;6.27;;;1.83;;
55423;SDS011;41294;42.666;23.350;2023-10-09T05:10:47;6.87;;;2.40;;
55423;SDS011;41294;42.666;23.350;2023-10-09T05:13:26;4.07;;;1.80;;
55423;SDS011;41294;42.666;23.350;2023-10-09T05:16:04;1.40;;;1.30;;
55423;SDS011;41294;42.666;23.350;2023-10-09T05:18:30;1.83;;;1.10;;
55423;SDS011;41294;42.666;23.350;2023-10-09T05:21:05;2.27;;;1.23;;
55423;SDS011;41294;42.666;23.350;2023-10-09T05:23:51;4.55;;;1.83;;
55423;SDS011;41294;42.666;23.350;2023-10-09T05:26:42;3.17;;;1.40;;
55423;SDS011;41294;42.666;23.350;2023-10-09T05:29:13;2.90;;;1.45;;
55423;SDS011;41294;42.666;23.350;2023-10-09T05:31:58;2.25;;;1.67;;
55423;SDS011;41294;42.666;23.350;2023-10-09T05:34:42;2.80;;;1.67;;
55423;SDS011;41294;42.666;23.350;2023-10-09T05:37:40;3.83;;;1.60;;
55423;SDS011;41294;42.666;23.350;2023-10-09T05:40:11;2.63;;;1.60;;
55423;SDS011;41294;42.666;23.350;2023-10-09T05:42:45;2.35;;;1.60;;
55423;SDS011;41294;42.666;23.350;2023-10-09T05:45:23;4.47;;;1.50;;
55423;SDS011;41294;42.666;23.350;2023-10-09T05:48:07;4.07;;;1.73;;
55423;SDS011;41294;42.666;23.350;2023-10-09T05:50:52;2.70;;;1.63;;
55423;SDS011;41294;42.666;23.350;2023-10-09T05:53:38;7.32;;;2.10;;
55423;SDS011;41294;42.666;23.350;2023-10-09T05:56:10;1.55;;;1.45;;
55423;SDS011;41294;42.666;23.350;2023-10-09T05:58:54;2.72;;;1.20;;
55423;SDS011;41294;42.666;23.350;2023-10-09T06:01:39;3.72;;;1.40;;
55423;SDS011;41294;42.666;23.350;2023-10-09T06:04:23;2.08;;;1.60;;
55423;SDS011;41294;42.666;23.350;2023-10-09T06:07:08;3.72;;;1.90;;
55423;SDS011;41294;42.666;23.350;2023-10-09T06:09:39;5.15;;;1.80;;
55423;SDS011;41294;42.666;23.350;2023-10-09T06:12:25;1.73;;;1.50;;
55423;SDS011;41294;42.666;23.350;2023-10-09T06:15:14;3.03;;;1.73;;
55423;SDS011;41294;42.666;23.350;2023-10-09T06:17:59;1.85;;;1.30;;
55423;SDS011;41294;42.666;23.350;2023-10-09T06:20:47;1.70;;;1.60;;
55423;SDS011;41294;42.666;23.350;2023-10-09T06:23:34;2.30;;;1.58;;
55423;SDS011;41294;42.666;23.350;2023-10-09T06:26:18;4.75;;;1.63;;
55423;SDS011;41294;42.666;23.350;2023-10-09T06:28:51;4.28;;;1.40;;
55423;SDS011;41294;42.666;23.350;2023-10-09T06:31:40;4.10;;;1.38;;
55423;SDS011;41294;42.666;23.350;2023-10-09T06:34:32;1.85;;;1.20;;
55423;SDS011;41294;42.666;23.350;2023-10-09T06:37:01;3.55;;;1.65;;
55423;SDS011;41294;42.666;23.350;2023-10-09T06:39:56;1.85;;;1.55;;
55423;SDS011;41294;42.666;23.350;2023-10-09T06:42:25;3.67;;;1.50;;
55423;SDS011;41294;42.666;23.350;2023-10-09T06:45:12;2.28;;;1.58;;
55423;SDS011;41294;42.666;23.350;2023-10-09T06:47:48;3.45;;;1.70;;
55423;SDS011;41294;42.666;23.350;2023-10-09T06:50:34;2.15;;;1.42;;
55423;SDS011;41294;42.666;23.350;2023-10-09T06:53:19;1.83;;;1.20;;
55423;SDS011;41294;42.666;23.350;2023-10-09T06:55:44;2.53;;;1.45;;
55423;SDS011;41294;42.666;23.350;2023-10-09T06:58:22;2.80;;;1.42;;
55423;SDS011;41294;42.666;23.350;2023-10-09T07:00:52;1.77;;;1.60;;
55423;SDS011;41294;42.666;23.350;2023-10-09T07:03:36;2.75;;;1.40;;
55423;SDS011;41294;42.666;23.350;2023-10-09T07:06:17;4.13;;;2.40;;
55423;SDS011;41294;42.666;23.350;2023-10-09T07:08:55;2.70;;;1.73;;
55423;SDS011;41294;42.666;23.350;2023-10-09T07:11:40;3.13;;;1.80;;
55423;SDS011;41294;42.666;23.350;2023-10-09T07:14:16;3.70;;;1.65;;
55423;SDS011;41294;42.666;23.350;2023-10-09T07:17:02;2.15;;;1.60;;
55423;SDS011;41294;42.666;23.350;2023-10-09T07:19:43;1.60;;;1.30;;
55423;SDS011;41294;42.666;23.350;2023-10-09T07:22:12;1.88;;;1.60;;
55423;SDS011;41294;42.666;23.350;2023-10-09T07:24:54;2.65;;;1.67;;
55423;SDS011;41294;42.666;23.350;2023-10-09T07:27:39;1.50;;;1.40;;
55423;SDS011;41294;42.666;23.350;2023-10-09T07:30:17;1.73;;;1.50;;
55423;SDS011;41294;42.666;23.350;2023-10-09T07:35:33;1.90;;;1.80;;
55423;SDS011;41294;42.666;23.350;2023-10-09T07:38:20;2.17;;;1.98;;
55423;SDS011;41294;42.666;23.350;2023-10-09T07:40:49;3.83;;;2.00;;
55423;SDS011;41294;42.666;23.350;2023-10-09T07:43:36;2.00;;;1.58;;
55423;SDS011;41294;42.666;23.350;2023-10-09T07:46:14;2.15;;;1.40;;
55423;SDS011;41294;42.666;23.350;2023-10-09T07:48:58;4.85;;;1.98;;
55423;SDS011;41294;42.666;23.350;2023-10-09T07:51:38;5.57;;;1.98;;
55423;SDS011;41294;42.666;23.350;2023-10-09T07:54:08;2.58;;;1.50;;
55423;SDS011;41294;42.666;23.350;2023-10-09T07:56:38;2.75;;;1.60;;
55423;SDS011;41294;42.666;23.350;2023-10-09T07:59:11;2.05;;;1.60;;
55423;SDS011;41294;42.666;23.350;2023-10-09T08:01:44;2.13;;;1.40;;
55423;SDS011;41294;42.666;23.350;2023-10-09T08:04:19;1.67;;;1.58;;
55423;SDS011;41294;42.666;23.350;2023-10-09T08:07:07;1.88;;;1.48;;
55423;SDS011;41294;42.666;23.350;2023-10-09T08:09:34;3.50;;;1.50;;
55423;SDS011;41294;42.666;23.350;2023-10-09T08:12:13;2.17;;;1.80;;
55423;SDS011;41294;42.666;23.350;2023-10-09T08:14:58;3.72;;;1.67;;
55423;SDS011;41294;42.666;23.350;2023-10-09T08:17:42;1.60;;;1.40;;
55423;SDS011;41294;42.666;23.350;2023-10-09T08:20:13;1.52;;;1.30;;
55423;SDS011;41294;42.666;23.350;2023-10-09T08:22:42;3.22;;;1.50;;
55423;SDS011;41294;42.666;23.350;2023-10-09T08:25:17;1.33;;;1.23;;
55423;SDS011;41294;42.666;23.350;2023-10-09T08:28:03;1.40;;;1.30;;
55423;SDS011;41294;42.666;23.350;2023-10-09T08:30:47;1.60;;;1.50;;
55423;SDS011;41294;42.666;23.350;2023-10-09T08:33:28;1.98;;;1.33;;
55423;SDS011;41294;42.666;23.350;2023-10-09T08:36:10;2.35;;;1.50;;
55423;SDS011;41294;42.666;23.350;2023-10-09T08:38:39;1.77;;;1.40;;
55423;SDS011;41294;42.666;23.350;2023-10-09T08:41:10;5.18;;;2.88;;
55423;SDS011;41294;42.666;23.350;2023-10-09T08:43:47;2.00;;;1.80;;
55423;SDS011;41294;42.666;23.350;2023-10-09T08:46:34;1.80;;;1.60;;
55423;SDS011;41294;42.666;23.350;2023-10-09T08:49:02;1.70;;;1.30;;
55423;SDS011;41294;42.666;23.350;2023-10-09T08:51:35;2.58;;;1.63;;
55423;SDS011;41294;42.666;23.350;2023-10-09T08:54:01;1.85;;;1.70;;
55423;SDS011;41294;42.666;23.350;2023-10-09T08:56:26;2.13;;;1.42;;
55423;SDS011;41294;42.666;23.350;2023-10-09T08:58:53;3.15;;;1.60;;
55423;SDS011;41294;42.666;23.350;2023-10-09T09:01:23;2.75;;;1.30;;
55423;SDS011;41294;42.666;23.350;2023-10-09T09:03:50;6.78;;;1.98;;
55423;SDS011;41294;42.666;23.350;2023-10-09T09:06:20;3.15;;;1.80;;
55423;SDS011;41294;42.666;23.350;2023-10-09T09:08:48;2.55;;;1.52;;
55423;SDS011;41294;42.666;23.350;2023-10-09T09:11:19;2.40;;;2.20;;
55423;SDS011;41294;42.666;23.350;2023-10-09T09:14:03;3.78;;;1.63;;
55423;SDS011;41294;42.666;23.350;2023-10-09T09:16:31;1.77;;;1.67;;
55423;SDS011;41294;42.666;23.350;2023-10-09T09:19:02;2.35;;;1.40;;
55423;SDS011;41294;42.666;23.350;2023-10-09T09:21:36;1.77;;;1.67;;
55423;SDS011;41294;42.666;23.350;2023-10-09T09:24:07;1.60;;;1.50;;
55423;SDS011;41294;42.666;23.350;2023-10-09T09:26:46;1.70;;;1.40;;
55423;SDS011;41294;42.666;23.350;2023-10-09T09:29:24;3.47;;;1.92;;
55423;SDS011;41294;42.666;23.350;2023-10-09T09:32:07;2.03;;;1.85;;
55423;SDS011;41294;42.666;23.350;2023-10-09T09:34:46;1.60;;;1.50;;
55423;SDS011;41294;42.666;23.350;2023-10-09T09:37:23;2.33;;;1.80;;
55423;SDS011;41294;42.666;23.350;2023-10-09T09:40:03;4.55;;;1.90;;
55423;SDS011;41294;42.666;23.350;2023-10-09T09:42:49;2.85;;;2.00;;
55423;SDS011;41294;42.666;23.350;2023-10-09T09:45:16;3.60;;;1.55;;
55423;SDS011;41294;42.666;23.350;2023-10-09T09:47:45;2.42;;;1.70;;
55423;SDS011;41294;42.666;23.350;2023-10-09T09:50:20;1.63;;;1.40;;
55423;SDS011;41294;42.666;23.350;2023-10-09T09:52:54;1.40;;;1.30;;
55423;SDS011;41294;42.666;23.350;2023-10-09T09:55:23;1.60;;;1.50;;
55423;SDS011;41294;42.666;23.350;2023-10-09T09:57:58;1.92;;;1.52;;
55423;SDS011;41294;42.666;23.350;2023-10-09T10:00:28;4.60;;;1.88;;
55423;SDS011;41294;42.666;23.350;2023-10-09T10:03:22;3.08;;;1.60;;
55423;SDS011;41294;42.666;23.350;2023-10-09T10:05:53;3.05;;;1.60;;
55423;SDS011;41294;42.666;23.350;2023-10-09T10:08:22;5.10;;;1.90;;
55423;SDS011;41294;42.666;23.350;2023-10-09T10:10:56;3.15;;;1.60;;
55423;SDS011;41294;42.666;23.350;2023-10-09T10:16:14;2.88;;;1.70;;
55423;SDS011;41294;42.666;23.350;2023-10-09T10:18:58;7.57;;;1.80;;
55423;SDS011;41294;42.666;23.350;2023-10-09T10:21:32;1.65;;;1.55;;
55423;SDS011;41294;42.666;23.350;2023-10-09T10:24:04;2.45;;;1.98;;
55423;SDS011;41294;42.666;23.350;2023-10-09T10:26:35;3.25;;;1.70;;
55423;SDS011;41294;42.666;23.350;2023-10-09T10:29:17;2.63;;;1.70;;
55423;SDS011;41294;42.666;23.350;2023-10-09T10:31:57;2.08;;;1.83;;
55423;SDS011;41294;42.666;23.350;2023-10-09T10:34:25;1.63;;;1.50;;
55423;SDS011;41294;42.666;23.350;2023-10-09T10:36:51;1.60;;;1.50;;
55423;SDS011;41294;42.666;23.350;2023-10-09T10:39:26;2.20;;;1.60;;
55423;SDS011;41294;42.666;23.350;2023-10-09T10:42:07;2.58;;;1.98;;
55423;SDS011;41294;42.666;23.350;2023-10-09T10:44:56;2.25;;;1.60;;
55423;SDS011;41294;42.666;23.350;2023-10-09T10:47:25;3.45;;;1.60;;
55423;SDS011;41294;42.666;23.350;2023-10-09T10:49:59;2.63;;;1.65;;
55423;SDS011;41294;42.666;23.350;2023-10-09T10:52:45;2.47;;;1.80;;
55423;SDS011;41294;42.666;23.350;2023-10-09T10:55:15;3.47;;;2.38;;
55423;SDS011;41294;42.666;23.350;2023-10-09T10:58:16;2.50;;;2.30;;
55423;SDS011;41294;42.666;23.350;2023-10-09T11:00:54;3.22;;;2.50;;
55423;SDS011;41294;42.666;23.350;2023-10-09T11:03:23;5.07;;;3.03;;
55423;SDS011;41294;42.666;23.350;2023-10-09T11:06:03;2.78;;;2.20;;
55423;SDS011;41294;42.666;23.350;2023-10-09T11:08:45;2.35;;;2.15;;
55423;SDS011;41294;42.666;23.350;2023-10-09T11:11:24;3.03;;;1.88;;
55423;SDS011;41294;42.666;23.350;2023-10-09T11:14:09;2.58;;;2.35;;
55423;SDS011;41294;42.666;23.350;2023-10-09T11:16:48;4.32;;;1.83;;
55423;SDS011;41294;42.666;23.350;2023-10-09T11:19:21;3.95;;;2.30;;
55423;SDS011;41294;42.666;23.350;2023-10-09T11:21:53;2.75;;;2.17;;
55423;SDS011;41294;42.666;23.350;2023-10-09T11:24:28;3.85;;;2.47;;
55423;SDS011;41294;42.666;23.350;2023-10-09T11:27:20;7.90;;;3.88;;
55423;SDS011;41294;42.666;23.350;2023-10-09T11:29:49;3.80;;;2.50;;
55423;SDS011;41294;42.666;23.350;2023-10-09T11:32:16;2.90;;;2.40;;
55423;SDS011;41294;42.666;23.350;2023-10-09T11:34:46;3.70;;;3.25;;
55423;SDS011;41294;42.666;23.350;2023-10-09T11:37:55;5.85;;;3.70;;
55423;SDS011;41294;42.666;23.350;2023-10-09T11:40:54;3.25;;;2.92;;
55423;SDS011;41294;42.666;23.350;2023-10-09T11:43:15;3.92;;;3.25;;
55423;SDS011;41294;42.666;23.350;2023-10-09T11:45:41;4.05;;;3.35;;
55423;SDS011;41294;42.666;23.350;2023-10-09T11:48:19;4.57;;;2.60;;
55423;SDS011;41294;42.666;23.350;2023-10-09T11:51:14;2.85;;;2.53;;
55423;SDS011;41294;42.666;23.350;2023-10-09T11:53:46;3.45;;;2.33;;
55423;SDS011;41294;42.666;23.350;2023-10-09T11:56:15;3.70;;;2.60;;
55423;SDS011;41294;42.666;23.350;2023-10-09T11:58:46;3.42;;;3.00;;
55423;SDS011;41294;42.666;23.350;2023-10-09T12:01:15;5.43;;;3.90;;
55423;SDS011;41294;42.666;23.350;2023-10-09T12:03:45;4.22;;;2.90;;
55423;SDS011;41294;42.666;23.350;2023-10-09T12:06:15;4.47;;;2.60;;
55423;SDS011;41294;42.666;23.350;2023-10-09T12:08:44;4.63;;;2.70;;
55423;SDS011;41294;42.666;23.350;2023-10-09T12:11:13;3.08;;;2.70;;
55423;SDS011;41294;42.666;23.350;2023-10-09T12:13:56;5.78;;;2.95;;
55423;SDS011;41294;42.666;23.350;2023-10-09T12:16:23;2.85;;;2.38;;
55423;SDS011;41294;42.666;23.350;2023-10-09T12:18:53;3.13;;;2.53;;
55423;SDS011;41294;42.666;23.350;2023-10-09T12:21:20;2.85;;;2.58;;
55423;SDS011;41294;42.666;23.350;2023-10-09T12:23:46;3.03;;;2.17;;
55423;SDS011;41294;42.666;23.350;2023-10-09T12:26:12;4.28;;;2.60;;
55423;SDS011;41294;42.666;23.350;2023-10-09T12:28:42;3.78;;;1.90;;
55423;SDS011;41294;42.666;23.350;2023-10-09T12:31:13;3.00;;;2.00;;
55423;SDS011;41294;42.666;23.350;2023-10-09T12:33:45;2.58;;;1.75;;
55423;SDS011;41294;42.666;23.350;2023-10-09T12:36:12;2.60;;;2.00;;
55423;SDS011;41294;42.666;23.350;2023-10-09T12:38:45;2.22;;;2.03;;
55423;SDS011;41294;42.666;23.350;2023-10-09T12:41:15;3.67;;;2.60;;
55423;SDS011;41294;42.666;23.350;2023-10-09T12:44:00;2.30;;;2.00;;
55423;SDS011;41294;42.666;23.350;2023-10-09T12:46:26;2.83;;;2.28;;
55423;SDS011;41294;42.666;23.350;2023-10-09T12:48:53;6.60;;;2.90;;
55423;SDS011;41294;42.666;23.350;2023-10-09T12:51:22;2.60;;;2.40;;
55423;SDS011;41294;42.666;23.350;2023-10-09T12:53:55;5.25;;;3.20;;
55423;SDS011;41294;42.666;23.350;2023-10-09T12:56:23;2.58;;;1.80;;
55423;SDS011;41294;42.666;23.350;2023-10-09T12:58:58;2.92;;;2.10;;
55423;SDS011;41294;42.666;23.350;2023-10-09T13:01:27;1.70;;;1.60;;
55423;SDS011;41294;42.666;23.350;2023-10-09T13:03:57;1.95;;;1.40;;
55423;SDS011;41294;42.666;23.350;2023-10-09T13:06:26;1.83;;;1.58;;
55423;SDS011;41294;42.666;23.350;2023-10-09T13:08:52;2.25;;;1.75;;
55423;SDS011;41294;42.666;23.350;2023-10-09T13:11:18;2.03;;;1.58;;
55423;SDS011;41294;42.666;23.350;2023-10-09T13:13:45;1.48;;;1.30;;
55423;SDS011;41294;42.666;23.350;2023-10-09T13:16:17;2.03;;;1.67;;
55423;SDS011;41294;42.666;23.350;2023-10-09T13:18:50;1.83;;;1.38;;
55423;SDS011;41294;42.666;23.350;2023-10-09T13:21:21;2.35;;;1.75;;
55423;SDS011;41294;42.666;23.350;2023-10-09T13:23:51;5.25;;;2.22;;
55423;SDS011;41294;42.666;23.350;2023-10-09T13:26:19;3.95;;;1.90;;
55423;SDS011;41294;42.666;23.350;2023-10-09T13:28:58;3.58;;;1.70;;
55423;SDS011;41294;42.666;23.350;2023-10-09T13:31:25;1.48;;;1.38;;
55423;SDS011;41294;42.666;23.350;2023-10-09T13:33:55;4.95;;;2.00;;
55423;SDS011;41294;42.666;23.350;2023-10-09T13:36:25;3.22;;;2.08;;
55423;SDS011;41294;42.666;23.350;2023-10-09T13:39:01;2.70;;;2.00;;
55423;SDS011;41294;42.666;23.350;2023-10-09T13:41:46;2.10;;;1.88;;
55423;SDS011;41294;42.666;23.350;2023-10-09T13:44:12;3.13;;;2.83;;
55423;SDS011;41294;42.666;23.350;2023-10-09T13:46:37;4.57;;;2.50;;
55423;SDS011;41294;42.666;23.350;2023-10-09T13:49:09;4.85;;;3.20;;
55423;SDS011;41294;42.666;23.350;2023-10-09T13:51:42;3.40;;;2.20;;
55423;SDS011;41294;42.666;23.350;2023-10-09T13:54:14;5.28;;;3.55;;
55423;SDS011;41294;42.666;23.350;2023-10-09T13:56:49;3.55;;;2.50;;
55423;SDS011;41294;42.666;23.350;2023-10-09T13:59:19;2.45;;;2.08;;
55423;SDS011;41294;42.666;23.350;2023-10-09T14:01:47;2.20;;;1.67;;
55423;SDS011;41294;42.666;23.350;2023-10-09T14:04:14;1.92;;;1.70;;
55423;SDS011;41294;42.666;23.350;2023-10-09T14:06:45;3.47;;;2.08;;
55423;SDS011;41294;42.666;23.350;2023-10-09T14:09:12;2.35;;;1.92;;
55423;SDS011;41294;42.666;23.350;2023-10-09T14:11:56;2.22;;;2.00;;
55423;SDS011;41294;42.666;23.350;2023-10-09T14:14:42;2.63;;;2.10;;
55423;SDS011;41294;42.666;23.350;2023-10-09T14:17:19;3.67;;;2.72;;
55423;SDS011;41294;42.666;23.350;2023-10-09T14:19:50;4.03;;;2.08;;
55423;SDS011;41294;42.666;23.350;2023-10-09T14:22:17;5.53;;;2.10;;
55423;SDS011;41294;42.666;23.350;2023-10-09T14:24:45;4.47;;;2.47;;
55423;SDS011;41294;42.666;23.350;2023-10-09T14:27:12;3.95;;;2.50;;
55423;SDS011;41294;42.666;23.350;2023-10-09T14:29:44;3.92;;;2.30;;
55423;SDS011;41294;42.666;23.350;2023-10-09T14:32:10;3.22;;;2.47;;
55423;SDS011;41294;42.666;23.350;2023-10-09T14:34:39;3.28;;;2.53;;
55423;SDS011;41294;42.666;23.350;2023-10-09T14:37:11;3.33;;;2.67;;
55423;SDS011;41294;42.666;23.350;2023-10-09T14:39:40;6.75;;;2.58;;
55423;SDS011;41294;42.666;23.350;2023-10-09T14:42:07;3.42;;;2.90;;
55423;SDS011;41294;42.666;23.350;2023-10-09T14:44:36;5.82;;;2.30;;
55423;SDS011;41294;42.666;23.350;2023-10-09T14:47:05;2.40;;;2.20;;
55423;SDS011;41294;42.666;23.350;2023-10-09T14:49:32;3.42;;;2.25;;
55423;SDS011;41294;42.666;23.350;2023-10-09T14:52:02;2.58;;;2.28;;
55423;SDS011;41294;42.666;23.350;2023-10-09T14:54:28;4.55;;;2.60;;
55423;SDS011;41294;42.666;23.350;2023-10-09T14:56:53;4.15;;;2.67;;
55423;SDS011;41294;42.666;23.350;2023-10-09T14:59:19;3.10;;;2.30;;
55423;SDS011;41294;42.666;23.350;2023-10-09T15:01:47;5.47;;;3.05;;
55423;SDS011;41294;42.666;23.350;2023-10-09T15:04:15;3.58;;;2.60;;
55423;SDS011;41294;42.666;23.350;2023-10-09T15:06:41;4.20;;;2.63;;
55423;SDS011;41294;42.666;23.350;2023-10-09T15:09:06;4.18;;;2.72;;
55423;SDS011;41294;42.666;23.350;2023-10-09T15:11:46;4.32;;;3.05;;
55423;SDS011;41294;42.666;23.350;2023-10-09T15:14:13;5.38;;;2.85;;
55423;SDS011;41294;42.666;23.350;2023-10-09T15:16:39;4.88;;;2.75;;
55423;SDS011;41294;42.666;23.350;2023-10-09T15:19:04;4.88;;;3.05;;
55423;SDS011;41294;42.666;23.350;2023-10-09T15:21:30;5.70;;;3.00;;
55423;SDS011;41294;42.666;23.350;2023-10-09T15:23:57;4.00;;;2.85;;
55423;SDS011;41294;42.666;23.350;2023-10-09T15:26:24;8.07;;;4.43;;
55423;SDS011;41294;42.666;23.350;2023-10-09T15:28:53;4.25;;;3.63;;